Latest Weather Observations for Canterbury

IDN60801

Issued at 12:33 pm EDT Thursday 20 January 2022 (issued every 10 minutes, with the page automatically refreshed every 10 minutes)

About weather observations | Map of weather stations | Latest weather observations for NSW | Other Formats
Station Details ID: 066194 Name: CANTERBURY RACECOURSE AWS Lat: -33.91 Lon: 151.11 Height: 3.0 m
Data from the previous 72 hours. | See also: Recent months at Canterbury
Date/Time
EDT
Temp
°C
App
Temp
°C
Dew
Point
°C
Rel
Hum
%
Delta-T
°C
Wind Press
QNH
hPa
Press
MSL
hPa
Rain since
9am
mm
Dir  Spd
km/h
Gust
km/h
Spd
kts
Gust
kts
20/12:30pm 21.7 17.3 12.8 57 5.1 SE 28 39 15 21 - - 0.0
20/12:00pm 20.1 18.6 15.3 74 2.8 SSE 17 22 9 12 - - 0.0
20/11:30am 20.6 18.8 14.5 68 3.6 SSE 17 30 9 16 - - 0.0
20/11:00am 21.4 17.9 13.3 60 4.6 SSE 24 39 13 21 - - 0.0
20/10:30am 22.7 18.9 12.3 52 5.9 SE 24 39 13 21 - - 0.0
20/10:00am 22.4 18.3 11.5 50 6.1 SE 24 35 13 19 - - 0.0
20/09:30am 21.4 16.4 12.3 56 5.1 SE 30 43 16 23 - - 0.0
20/09:00am 21.8 18.0 11.2 51 5.9 SE 22 33 12 18 - - 2.0
20/08:30am 21.2 16.9 12.1 56 5.1 SE 26 41 14 22 - - 1.8
20/08:00am 20.9 16.8 12.6 59 4.7 SE 26 44 14 24 - - 1.8
20/07:30am 20.9 17.3 13.1 61 4.4 SE 24 41 13 22 - - 1.8
20/07:00am 20.3 18.9 13.3 64 4.0 SSE 13 22 7 12 - - 1.8
20/06:30am 20.4 17.4 12.4 60 4.5 SSE 20 33 11 18 - - 1.8
20/06:00am 21.1 17.7 10.6 51 5.7 SE 19 28 10 15 - - 1.8
20/05:30am 21.0 16.1 11.3 54 5.4 SE 28 43 15 23 - - 1.8
20/05:00am 20.8 16.9 12.0 57 4.9 SE 24 35 13 19 - - 1.8
20/04:30am 21.0 17.4 12.9 60 4.6 SE 24 35 13 19 - - 1.8
20/04:00am 21.1 17.7 12.5 58 4.9 SE 22 35 12 19 - - 1.8
20/03:30am 21.0 18.1 13.9 64 4.1 SSE 22 35 12 19 - - 1.8
20/03:00am 20.9 17.8 14.5 67 3.7 SE 24 37 13 20 - - 1.8
20/02:30am 21.3 17.3 13.0 59 4.7 SE 26 41 14 22 - - 1.8
20/02:00am 21.2 17.9 12.9 59 4.7 SE 22 35 12 19 - - 1.8
20/01:30am 21.3 18.3 12.4 57 5.0 SE 20 43 11 23 - - 1.8
20/01:00am 21.1 17.8 12.8 59 4.7 SE 22 33 12 18 - - 1.8
20/12:30am 21.2 18.3 13.9 63 4.2 SE 22 35 12 19 - - 1.8
20/12:00am 21.3 18.3 12.4 57 5.0 SSE 20 32 11 17 - - 1.8
 
Date/Time
EDT
Temp
°C
App
Temp
°C
Dew
Point
°C
Rel
Hum
%
Delta-T
°C
Wind Press
QNH
hPa
Press
MSL
hPa
Rain since
9am
mm
Dir  Spd
km/h
Gust
km/h
Spd
kts
Gust
kts
19/11:30pm 21.3 18.6 13.5 61 4.5 SSE 20 32 11 17 - - 1.8
19/11:00pm 20.9 18.8 13.6 63 4.2 SSE 17 30 9 16 - - 1.8
19/10:30pm 21.1 17.7 13.8 63 4.2 SSE 24 43 13 23 - - 1.8
19/10:00pm 21.1 17.9 13.0 60 4.6 SSE 22 35 12 19 - - 1.8
19/09:30pm 21.1 17.6 13.3 61 4.5 SSE 24 37 13 20 - - 1.8
19/09:00pm 20.6 18.6 14.9 70 3.3 SSE 19 35 10 19 - - 1.8
19/08:30pm 20.9 18.5 14.5 67 3.7 S 20 33 11 18 - - 1.8
19/08:00pm 21.0 18.4 14.9 68 3.6 SSE 22 35 12 19 - - 1.6
19/07:30pm 21.0 17.5 14.6 67 3.7 SSE 26 46 14 25 - - 1.6
19/07:00pm 21.1 18.4 14.7 67 3.8 SSE 22 35 12 19 - - 1.6
19/06:30pm 20.3 19.4 15.9 76 2.6 SSE 15 24 8 13 - - 1.6
19/06:00pm 20.3 18.4 15.7 75 2.7 SE 20 35 11 19 - - 1.6
19/05:50pm 20.8 17.0 14.7 68 3.6 SSE 28 46 15 25 - - 1.6
19/05:30pm 21.0 17.2 14.6 67 3.7 SE 28 44 15 24 - - 1.6
19/05:00pm 21.8 18.3 15.4 67 3.8 SE 28 41 15 22 - - 1.6
19/04:30pm 21.2 19.7 16.2 73 3.0 SSE 19 30 10 16 - - 1.6
19/04:12pm 21.4 18.3 16.6 74 2.9 SSE 28 48 15 26 - - 1.6
19/04:00pm 21.6 19.8 16.1 71 3.3 SSE 20 33 11 18 - - 1.6
19/03:30pm 20.9 18.7 16.9 78 2.4 S 24 41 13 22 - - 1.6
19/03:00pm 22.2 19.2 16.9 72 3.2 SSE 28 48 15 26 - - 1.6
19/02:43pm 23.1 19.7 15.7 63 4.5 SSE 28 46 15 25 - - 1.6
19/02:30pm 22.6 19.8 16.4 68 3.8 SSE 26 48 14 26 - - 1.6
19/02:03pm 23.0 19.8 16.3 66 4.1 SSE 28 48 15 26 - - 1.6
19/02:00pm 23.3 21.1 16.8 67 4.0 SSE 24 48 13 26 - - 1.6
19/01:42pm 22.9 19.5 15.7 64 4.3 SSE 28 46 15 25 - - 1.6
19/01:30pm 23.7 21.4 16.7 65 4.3 SSE 24 43 13 23 - - 1.6
19/01:00pm 22.6 19.7 16.2 67 3.9 SSE 26 43 14 23 - - 1.6
19/12:57pm 22.4 19.0 15.7 66 4.0 SSE 28 43 15 23 - - 1.6
19/12:30pm 21.1 21.7 18.5 85 1.6 S 13 20 7 11 - - 1.6
19/12:00pm 20.2 20.8 18.5 90 1.1 SSW 13 19 7 10 - - 1.6
19/11:30am 20.1 20.5 18.2 89 1.2 S 13 24 7 13 - - 1.0
19/11:00am 20.0 19.6 18.0 88 1.2 S 17 30 9 16 - - 0.6
19/10:30am 19.8 19.7 17.8 88 1.2 S 15 24 8 13 - - 0.4
19/10:00am 19.5 18.5 17.5 88 1.2 S 19 32 10 17 - - 0.2
19/09:30am 19.3 18.0 17.3 88 1.2 S 20 32 11 17 - - 0.0
19/09:00am 19.0 19.1 17.5 91 0.9 S 13 26 7 14 - - 7.2
19/08:30am 18.5 17.7 17.0 91 0.9 S 17 30 9 16 - - 7.0
19/08:00am 18.5 18.8 17.0 91 0.9 SSW 11 22 6 12 - - 6.2
19/07:30am 18.5 18.5 17.2 92 0.8 S 13 22 7 12 - - 5.8
19/07:00am 18.6 18.3 17.4 93 0.7 S 15 24 8 13 - - 5.6
19/06:59am 18.6 18.3 17.4 93 0.7 S 15 24 8 13 - - 5.4
19/06:38am 18.6 17.3 17.3 92 0.8 S 20 32 11 17 - - 5.0
19/06:30am 18.8 17.5 17.3 91 0.9 S 20 33 11 18 - - 4.6
19/06:00am 19.6 18.7 16.8 84 1.7 S 17 28 9 15 - - 3.6
19/05:30am 19.9 18.5 16.9 83 1.8 S 20 33 11 18 - - 3.6
19/05:00am 20.0 18.8 17.0 83 1.8 S 19 33 10 18 - - 3.6
19/04:30am 20.4 18.2 16.8 80 2.2 S 24 39 13 21 - - 3.6
19/04:00am 20.5 19.7 17.1 81 2.1 SSE 17 30 9 16 - - 3.6
19/03:30am 20.1 19.6 17.7 86 1.5 S 17 28 9 15 - - 3.6
19/03:00am 20.2 19.4 18.0 87 1.4 S 19 33 10 18 - - 3.6
19/02:30am 20.4 19.7 18.2 87 1.4 S 19 33 10 18 - - 3.6
19/02:00am 20.5 20.0 18.6 89 1.2 SSE 19 32 10 17 - - 3.6
19/01:30am 20.4 20.7 18.7 90 1.1 S 15 26 8 14 - - 3.6
19/01:00am 20.2 20.9 18.9 92 0.8 S 13 20 7 11 - - 3.6
19/12:43am 20.0 20.8 19.0 94 0.6 S 13 20 7 11 - - 3.6
19/12:30am 20.1 20.5 19.1 94 0.6 S 15 22 8 12 - - 3.6
19/12:23am 20.1 20.5 19.1 94 0.6 S 15 24 8 13 - - 3.4
19/12:19am 20.2 20.6 19.0 93 0.8 S 15 24 8 13 - - 3.4
19/12:00am 20.2 21.2 19.4 95 0.5 S 13 20 7 11 - - 3.4
 
Date/Time
EDT
Temp
°C
App
Temp
°C
Dew
Point
°C
Rel
Hum
%
Delta-T
°C
Wind Press
QNH
hPa
Press
MSL
hPa
Rain since
9am
mm
Dir  Spd
km/h
Gust
km/h
Spd
kts
Gust
kts
18/11:30pm 20.3 21.3 19.5 95 0.5 SSE 13 22 7 12 - - 3.2
18/11:23pm 20.3 20.8 19.3 94 0.6 S 15 26 8 14 - - 3.2
18/11:00pm 20.3 20.4 19.1 93 0.8 S 17 28 9 15 - - 3.2
18/10:30pm 20.2 20.4 19.4 95 0.5 SSE 17 26 9 14 - - 3.2
18/10:17pm 20.2 20.1 19.5 96 0.4 SSE 19 28 10 15 - - 3.2
18/10:00pm 20.3 20.3 19.8 97 0.3 SSE 19 32 10 17 - - 3.2
18/09:52pm 20.3 20.2 19.6 96 0.4 SSE 19 30 10 16 - - 3.0
18/09:30pm 20.5 20.5 19.8 96 0.4 SSE 19 28 10 15 - - 3.0
18/09:25pm 20.5 20.6 20.0 97 0.3 S 19 28 10 15 - - 3.0
18/09:01pm 20.5 21.4 20.0 97 0.3 SSE 15 24 8 13 - - 2.8
18/09:00pm 20.5 21.4 20.0 97 0.3 SSE 15 24 8 13 - - 2.8
18/08:30pm 20.5 21.0 20.0 97 0.3 SSE 17 24 9 13 - - 2.6
18/08:00pm 20.7 21.8 20.4 98 0.2 SSE 15 24 8 13 - - 2.6
18/07:40pm 20.9 22.1 20.6 98 0.2 S 15 28 8 15 - - 2.4
18/07:30pm 20.9 22.1 20.6 98 0.2 SSE 15 24 8 13 - - 2.2
18/07:00pm 20.9 21.2 20.4 97 0.3 SSE 19 26 10 14 - - 1.8
18/06:30pm 20.8 21.7 20.1 96 0.4 SSE 15 22 8 12 - - 1.2
18/06:00pm 20.8 20.1 19.6 93 0.8 SSE 22 32 12 17 - - 0.6
18/05:30pm 21.1 20.9 19.4 90 1.1 SSE 19 32 10 17 - - 0.4
18/05:00pm 21.2 20.8 19.3 89 1.2 SSE 20 32 11 17 - - 0.4
18/04:30pm 21.4 20.6 19.3 88 1.3 SSE 22 35 12 19 - - 0.4
18/04:00pm 21.2 20.6 18.9 87 1.4 SSE 20 32 11 17 - - 0.4
18/03:30pm 21.7 21.3 19.3 86 1.5 S 20 33 11 18 - - 0.4
18/03:00pm 22.3 21.9 19.3 83 1.9 SSE 20 32 11 17 - - 0.4
18/02:30pm 23.1 22.9 19.7 81 2.2 SSE 20 30 11 16 - - 0.4
18/02:00pm 23.0 23.5 20.1 84 1.9 SSE 17 32 9 17 - - 0.4
18/01:30pm 22.9 23.3 19.9 83 1.9 SSE 17 26 9 14 - - 0.4
18/01:00pm 23.5 24.0 20.0 81 2.3 SSE 17 26 9 14 - - 0.4
18/12:30pm 23.2 23.3 20.0 82 2.1 SSE 19 28 10 15 - - 0.4
18/12:00pm 23.6 25.4 21.1 86 1.6 S 13 20 7 11 - - 0.4
18/11:30am 22.7 24.5 20.4 87 1.5 S 11 20 6 11 - - 0.4
18/11:00am 22.5 24.2 20.2 87 1.5 S 11 20 6 11 - - 0.2
18/10:30am 22.9 24.2 20.1 84 1.8 S 13 20 7 11 - - 0.0
18/10:00am 23.3 24.0 19.7 80 2.3 SSW 15 26 8 14 - - 0.0
18/09:30am 23.6 23.7 19.9 80 2.4 S 19 28 10 15 - - 0.0
18/09:00am 23.8 24.3 20.1 80 2.4 SSE 17 26 9 14 - - 0.0
18/08:30am 23.5 23.5 20.2 82 2.1 SSE 20 30 11 16 - - 0.0
18/08:00am 23.2 23.9 20.5 85 1.8 S 17 28 9 15 - - 0.0
18/07:30am 23.2 23.6 20.7 86 1.6 SSE 19 32 10 17 - - 0.0
18/07:00am 23.1 24.7 20.8 87 1.5 S 13 20 7 11 - - 0.0
18/06:30am 23.1 23.7 21.0 88 1.4 S 19 30 10 16 - - 0.0
18/06:00am 23.2 24.3 21.3 89 1.2 S 17 24 9 13 - - 0.0
18/05:30am 22.9 23.8 20.8 88 1.4 SSE 17 28 9 15 - - 0.0
18/05:00am 23.7 25.0 20.2 81 2.3 SSE 13 24 7 13 - - 0.0
18/04:30am 23.6 26.5 20.7 84 1.9 S 6 9 3 5 - - 0.0
18/04:00am 23.5 27.6 20.8 85 1.8 CALM 0 0 0 0 - - 0.0
18/03:30am 23.4 27.2 21.7 90 1.1 WSW 4 9 2 5 - - 0.0
18/03:00am 23.3 27.6 21.2 88 1.4 CALM 0 0 0 0 - - 0.0
18/02:30am 23.8 28.3 21.5 87 1.5 CALM 0 0 0 0 - - 0.0
18/02:00am 24.4 29.1 21.9 86 1.7 CALM 0 7 0 4 - - 0.0
18/01:30am 24.1 28.6 21.6 86 1.7 CALM 0 0 0 0 - - 0.0
18/01:00am 24.2 28.9 21.9 87 1.5 CALM 0 0 0 0 - - 0.0
18/12:30am 24.1 28.7 21.8 87 1.5 CALM 0 0 0 0 - - 0.0
18/12:00am 24.0 28.5 21.5 86 1.7 CALM 0 0 0 0 - - 0.0
 
Date/Time
EDT
Temp
°C
App
Temp
°C
Dew
Point
°C
Rel
Hum
%
Delta-T
°C
Wind Press
QNH
hPa
Press
MSL
hPa
Rain since
9am
mm
Dir  Spd
km/h
Gust
km/h
Spd
kts
Gust
kts
17/11:30pm 24.1 28.5 21.4 85 1.8 CALM 0 0 0 0 - - 0.0
17/11:00pm 24.3 28.7 21.4 84 1.9 CALM 0 0 0 0 - - 0.0
17/10:30pm 24.4 28.6 20.9 81 2.3 CALM 0 0 0 0 - - 0.0
17/10:00pm 25.1 28.8 20.8 77 2.8 N 2 7 1 4 - - 0.0
17/09:30pm 25.3 29.0 20.8 76 3.0 NNE 2 7 1 4 - - 0.0
17/09:00pm 25.5 27.7 20.5 74 3.3 N 9 15 5 8 - - 0.0
17/08:30pm 25.8 28.5 20.6 73 3.4 NNE 7 13 4 7 - - 0.0
17/08:00pm 25.7 28.3 20.5 73 3.4 NE 7 13 4 7 - - 0.0
17/07:30pm 25.8 28.0 20.4 72 3.5 NE 9 15 5 8 - - 0.0
17/07:00pm 26.0 27.9 20.6 72 3.5 NE 11 20 6 11 - - 0.0
17/06:30pm 26.3 27.4 20.4 70 3.9 NE 15 24 8 13 - - 0.0
17/06:00pm 26.9 28.9 20.7 69 4.1 NE 11 17 6 9 - - 0.0
17/05:30pm 27.1 28.6 21.2 70 3.9 ENE 15 24 8 13 - - 0.0
17/05:00pm 27.1 28.6 21.2 70 3.9 NE 15 22 8 12 - - 0.0
17/04:30pm 27.4 27.7 20.7 67 4.4 ENE 20 28 11 15 - - 0.0
17/04:00pm 27.9 28.9 21.0 66 4.6 ENE 17 24 9 13 - - 0.0
17/03:30pm 28.3 29.7 21.8 68 4.4 E 17 22 9 12 - - 0.0
17/03:00pm 28.7 30.0 21.7 66 4.7 ENE 17 28 9 15 - - 0.0
17/02:30pm 29.1 29.6 21.1 62 5.3 ENE 20 26 11 14 - - 0.0
17/02:00pm 29.8 31.6 21.2 60 5.7 NE 13 20 7 11 - - 0.0
17/01:30pm 30.1 31.9 21.2 59 6.0 NE 13 20 7 11 - - 0.0
17/01:00pm 30.2 31.5 20.2 55 6.6 ENE 13 19 7 10 - - 0.0

Other formats

Comma delimited format used in spreadsheet applications
http://www.bom.gov.au/fwo/IDN60801/IDN60801.94766.axf

JavaScript Object Notation format (JSON) in row-major order
http://www.bom.gov.au/fwo/IDN60801/IDN60801.94766.json

Data quality

Most of these data are generated automatically and are frequently updated. Quality checks on data are not normally performed. It is possible for incorrect values to appear. Refer to information at About Latest Weather Observations and please check the disclaimer before using these data.